createdAt,value
2023-01-17T00:02:19.916Z,97920.91
2023-01-17T00:05:05.821Z,97919.16
2023-01-17T00:07:52.053Z,97926.91
2023-01-17T00:10:27.979Z,97921.81
2023-01-17T00:12:58.664Z,97915.84
2023-01-17T00:15:27.240Z,97915.84
2023-01-17T00:17:54.847Z,97910.69
2023-01-17T00:20:46.549Z,97908.16
2023-01-17T00:23:41.831Z,97895.25
2023-01-17T00:26:18.794Z,97904.78
2023-01-17T00:28:47.701Z,97899.59
2023-01-17T00:31:16.361Z,97891.03
2023-01-17T00:33:43.577Z,97884.31
2023-01-17T00:36:11.663Z,97879.13
2023-01-17T00:38:41.229Z,97874.72
2023-01-17T00:41:14.054Z,97878.16
2023-01-17T00:43:59.866Z,97866.09
2023-01-17T00:46:45.676Z,97865.25
2023-01-17T00:49:31.269Z,97871.31
2023-01-17T00:52:17.200Z,97860.97
2023-01-17T00:55:02.618Z,97862.66
2023-01-17T00:57:48.470Z,97857.50
2023-01-17T01:00:38.810Z,97848.09
2023-01-17T01:03:31.295Z,97843.94
2023-01-17T01:06:16.775Z,97853.34
2023-01-17T01:09:02.173Z,97843.94
2023-01-17T01:11:47.698Z,97840.59
2023-01-17T01:14:33.157Z,97842.38
2023-01-17T01:17:18.660Z,97844.13
2023-01-17T01:20:04.136Z,97840.72
2023-01-17T01:22:49.525Z,97834.75
2023-01-17T01:25:35.140Z,97832.38
2023-01-17T01:28:27.302Z,97835.78
2023-01-17T01:31:13.111Z,97839.22
2023-01-17T01:33:40.121Z,97822.06
2023-01-17T01:36:08.834Z,97821.22
2023-01-17T01:38:35.759Z,97818.63
2023-01-17T01:41:02.900Z,97819.53
2023-01-17T01:43:47.647Z,97819.56
2023-01-17T01:46:36.913Z,97822.22
2023-01-17T01:49:17.820Z,97818.81
2023-01-17T01:51:51.810Z,97808.50
2023-01-17T01:54:28.575Z,97805.94
2023-01-17T01:57:01.524Z,97796.59
2023-01-17T01:59:30.956Z,97798.16
2023-01-17T02:01:58.277Z,97793.03
2023-01-17T02:07:15.303Z,97804.25
2023-01-17T02:09:42.636Z,97792.16
2023-01-17T02:12:10.418Z,97793.84
2023-01-17T02:14:37.311Z,97790.41
2023-01-17T02:17:34.661Z,97789.53
2023-01-17T02:20:33.805Z,97785.28
2023-01-17T02:23:28.113Z,97785.28
2023-01-17T02:26:31.327Z,97781.84
2023-01-17T02:29:43.898Z,97780.13
2023-01-17T02:32:44.577Z,97770.72
2023-01-17T02:36:04.129Z,97777.69
2023-01-17T02:38:50.000Z,97769.94
2023-01-17T02:41:23.585Z,97771.66
2023-01-17T02:43:51.456Z,97774.22
2023-01-17T02:46:18.834Z,97768.22
2023-01-17T02:48:46.733Z,97772.56
2023-01-17T02:51:54.537Z,97770.06
2023-01-17T02:54:50.935Z,97768.44
2023-01-17T02:57:29.475Z,97767.63
2023-01-17T03:00:19.075Z,97772.78
2023-01-17T03:03:22.184Z,97757.41
2023-01-17T03:06:07.748Z,97758.16
2023-01-17T03:08:34.963Z,97766.78
2023-01-17T03:11:01.965Z,97765.03
2023-01-17T03:13:28.844Z,97755.53
2023-01-17T03:15:55.732Z,97752.03
2023-01-17T03:18:22.886Z,97756.28
2023-01-17T03:20:49.851Z,97749.34
2023-01-17T03:23:16.732Z,97754.41
2023-01-17T03:25:43.624Z,97753.47
2023-01-17T03:28:10.520Z,97750.03
2023-01-17T03:30:37.417Z,97754.31
2023-01-17T03:33:04.344Z,97753.44
2023-01-17T03:35:31.225Z,97755.13
2023-01-17T03:37:58.684Z,97750.06
2023-01-17T03:40:25.682Z,97752.50
2023-01-17T03:42:52.566Z,97743.06
2023-01-17T03:45:19.942Z,97749.03
2023-01-17T03:47:46.839Z,97753.28
2023-01-17T03:50:13.827Z,97748.09
2023-01-17T03:52:40.717Z,97753.19
2023-01-17T03:55:08.253Z,97752.28
2023-01-17T03:57:35.120Z,97751.31
2023-01-17T04:00:02.087Z,97746.06
2023-01-17T04:02:29.052Z,97745.97
2023-01-17T04:04:56.005Z,97751.91
2023-01-17T04:07:23.017Z,97746.72
2023-01-17T04:09:49.941Z,97751.81
2023-01-17T04:12:16.849Z,97749.22
2023-01-17T04:14:43.764Z,97748.28
2023-01-17T04:17:12.879Z,97759.44
2023-01-17T04:19:40.980Z,97757.69
2023-01-17T04:22:08.331Z,97748.13
2023-01-17T04:24:35.344Z,97749.84
2023-01-17T04:27:04.323Z,97745.53
2023-01-17T04:29:31.302Z,97749.75
2023-01-17T04:31:58.203Z,97754.00
2023-01-17T04:34:25.178Z,97735.09
2023-01-17T04:36:52.057Z,97741.72
2023-01-17T04:39:18.965Z,97739.06
2023-01-17T04:41:45.834Z,97735.56
2023-01-17T04:44:12.722Z,97734.69
2023-01-17T04:46:39.600Z,97736.34
2023-01-17T04:49:06.580Z,97738.03
2023-01-17T04:51:33.477Z,97741.41
2023-01-17T04:54:00.379Z,97735.34
2023-01-17T04:56:27.321Z,97738.75
2023-01-17T04:58:57.082Z,97741.25
2023-01-17T05:01:24.036Z,97719.84
2023-01-17T05:03:50.953Z,97741.94
2023-01-17T05:06:17.817Z,97737.59
2023-01-17T05:08:44.713Z,97741.00
2023-01-17T05:11:11.579Z,97740.09
2023-01-17T05:13:38.468Z,97734.06
2023-01-17T05:16:05.504Z,97740.09
2023-01-17T05:18:32.427Z,97744.38
2023-01-17T05:21:03.800Z,97746.09
2023-01-17T05:23:30.718Z,97749.47
2023-01-17T05:25:57.576Z,97745.13
2023-01-17T05:28:24.493Z,97751.13
2023-01-17T05:30:52.111Z,97756.28
2023-01-17T05:33:19.002Z,97757.09
2023-01-17T05:35:45.887Z,97752.72
2023-01-17T05:38:12.765Z,97756.94
2023-01-17T05:40:39.658Z,97762.91
2023-01-17T05:43:06.536Z,97768.03
2023-01-17T05:45:33.837Z,97769.81
2023-01-17T05:48:01.380Z,97762.88
2023-01-17T05:50:38.444Z,97781.72
2023-01-17T05:53:12.587Z,97773.97
2023-01-17T05:55:40.406Z,97773.03
2023-01-17T05:58:09.393Z,97765.19
2023-01-17T06:00:37.364Z,97761.66
2023-01-17T06:03:04.502Z,97748.09
2023-01-17T06:05:31.939Z,97759.78
2023-01-17T06:07:59.441Z,97769.16
2023-01-17T06:10:28.222Z,97764.88
2023-01-17T06:13:07.773Z,97769.94
2023-01-17T06:15:38.783Z,97773.31
2023-01-17T06:18:09.113Z,97767.22
2023-01-17T06:20:36.160Z,97769.78
2023-01-17T06:23:04.577Z,97780.06
2023-01-17T06:25:38.466Z,97776.59
2023-01-17T06:28:09.580Z,97775.66
2023-01-17T06:30:36.722Z,97776.41
2023-01-17T06:33:04.719Z,97778.13
2023-01-17T06:35:31.954Z,97774.63
2023-01-17T06:38:00.324Z,97769.44
2023-01-17T06:40:28.661Z,97771.13
2023-01-17T06:43:03.613Z,97779.78
2023-01-17T06:45:32.108Z,97778.03
2023-01-17T06:48:00.836Z,97784.06
2023-01-17T06:50:27.780Z,97787.47
2023-01-17T06:53:03.620Z,97778.84
2023-01-17T06:55:33.741Z,97796.03
2023-01-17T06:58:02.694Z,97791.59
2023-01-17T07:00:31.344Z,97801.84
2023-01-17T07:02:58.500Z,97802.72
2023-01-17T07:05:25.536Z,97800.06
2023-01-17T07:07:53.527Z,97807.81
2023-01-17T07:10:21.313Z,97797.44
2023-01-17T07:12:48.247Z,97803.56
2023-01-17T07:15:15.257Z,97813.78
2023-01-17T07:17:42.172Z,97819.75
2023-01-17T07:20:09.872Z,97816.31
2023-01-17T07:22:37.713Z,97819.75
2023-01-17T07:25:05.187Z,97824.91
2023-01-17T07:27:33.478Z,97826.63
2023-01-17T07:30:00.497Z,97824.06
2023-01-17T07:32:27.646Z,97830.97
2023-01-17T07:34:56.790Z,97842.16
2023-01-17T07:37:23.753Z,97841.31
2023-01-17T07:39:50.697Z,97837.00
2023-01-17T07:42:17.573Z,97831.84
2023-01-17T07:44:45.315Z,97842.09
2023-01-17T07:47:12.298Z,97837.78
2023-01-17T07:49:39.260Z,97835.16
2023-01-17T07:52:09.587Z,97841.13
2023-01-17T07:54:36.501Z,97843.63
2023-01-17T07:57:03.485Z,97845.41
2023-01-17T07:59:30.438Z,97842.69
2023-01-17T08:01:57.513Z,97844.53
2023-01-17T08:04:34.543Z,97855.72
2023-01-17T08:07:02.278Z,97853.97
2023-01-17T08:09:29.172Z,97853.94
2023-01-17T08:11:56.079Z,97859.16
2023-01-17T08:14:23.002Z,97866.88
2023-01-17T08:16:49.858Z,97865.22
2023-01-17T08:19:17.291Z,97858.34
2023-01-17T08:21:44.205Z,97864.41
2023-01-17T08:24:14.697Z,97866.19
2023-01-17T08:26:41.624Z,97867.84
2023-01-17T08:29:09.354Z,97870.44
2023-01-17T08:31:36.721Z,97871.28
2023-01-17T08:34:03.784Z,97870.44
2023-01-17T08:36:31.272Z,97866.28
2023-01-17T08:38:58.844Z,97879.06
2023-01-17T08:41:28.961Z,97880.06
2023-01-17T08:43:55.810Z,97881.72
2023-01-17T08:46:22.930Z,97875.72
2023-01-17T08:48:55.697Z,97883.50
2023-01-17T08:51:26.258Z,97883.47
2023-01-17T08:53:54.833Z,97900.69
2023-01-17T08:56:21.928Z,97900.63
2023-01-17T08:58:48.754Z,97897.25
2023-01-17T09:01:16.007Z,97898.88
2023-01-17T09:03:42.983Z,97898.00
2023-01-17T09:06:15.360Z,97902.28
2023-01-17T09:08:47.029Z,97893.59
2023-01-17T09:11:16.776Z,97903.88
2023-01-17T09:13:43.859Z,97895.28
2023-01-17T09:16:11.244Z,97908.22
2023-01-17T09:18:38.209Z,97907.47
2023-01-17T09:21:14.219Z,97904.81
2023-01-17T09:23:41.613Z,97926.25
2023-01-17T09:26:17.504Z,97925.47
2023-01-17T09:28:44.369Z,97928.06
2023-01-17T09:31:11.271Z,97935.75
2023-01-17T09:33:41.021Z,97940.09
2023-01-17T09:36:08.924Z,97937.41
2023-01-17T09:38:36.362Z,97945.19
2023-01-17T09:41:03.809Z,97946.09
2023-01-17T09:43:56.128Z,97949.63
2023-01-17T09:46:29.878Z,97949.81
2023-01-17T09:49:24.164Z,97959.38
2023-01-17T09:51:51.066Z,97958.63
2023-01-17T09:54:23.798Z,97958.66
2023-01-17T09:57:03.369Z,97958.56
2023-01-17T10:00:02.907Z,97973.19
2023-01-17T10:03:17.023Z,97968.94
2023-01-17T10:06:10.413Z,97983.59
2023-01-17T10:09:30.376Z,97991.28
2023-01-17T10:12:28.599Z,97994.75
2023-01-17T10:15:16.526Z,97999.97
2023-01-17T10:18:21.743Z,98017.31
2023-01-17T10:21:49.490Z,98011.47
2023-01-17T10:24:49.848Z,98026.31
2023-01-17T10:27:26.255Z,98033.25
2023-01-17T10:29:54.212Z,98033.28
2023-01-17T10:32:26.590Z,98046.19
2023-01-17T10:35:01.413Z,98048.78
2023-01-17T10:37:40.925Z,98042.66
2023-01-17T10:40:41.177Z,98054.72
2023-01-17T10:43:44.484Z,98062.50
2023-01-17T10:46:22.940Z,98071.13
2023-01-17T10:48:52.648Z,98068.50
2023-01-17T10:51:30.808Z,98077.16
2023-01-17T10:55:03.872Z,98078.84
2023-01-17T10:57:41.830Z,98083.16
2023-01-17T11:00:21.429Z,98086.56
2023-01-17T11:02:50.599Z,98099.53
2023-01-17T11:05:31.236Z,98087.44
2023-01-17T11:07:59.191Z,98099.53
2023-01-17T11:10:49.053Z,98096.94
2023-01-17T11:13:30.292Z,98089.28
2023-01-17T11:16:02.151Z,98086.59
2023-01-17T11:18:32.027Z,98103.78
2023-01-17T11:21:15.954Z,98100.34
2023-01-17T11:23:50.003Z,98105.50
2023-01-17T11:26:29.584Z,98109.88
2023-01-17T11:29:27.078Z,98108.94
2023-01-17T11:31:56.239Z,98112.47
2023-01-17T11:34:32.018Z,98115.00
2023-01-17T11:37:19.559Z,98102.94
2023-01-17T11:39:49.964Z,98112.19
2023-01-17T11:42:37.832Z,98119.03
2023-01-17T11:45:25.353Z,98103.69
2023-01-17T11:48:08.040Z,98121.59
2023-01-17T11:50:45.517Z,98106.91
2023-01-17T11:53:23.181Z,98120.66
2023-01-17T11:56:10.430Z,98131.06
2023-01-17T11:58:41.849Z,98131.03
2023-01-17T12:01:37.506Z,98131.06
2023-01-17T12:04:43.576Z,98136.31
2023-01-17T12:07:37.963Z,98147.59
2023-01-17T12:10:43.401Z,98147.72
2023-01-17T12:13:48.384Z,98158.25
2023-01-17T12:16:45.973Z,98155.72
2023-01-17T12:19:57.141Z,98169.75
2023-01-17T12:22:59.584Z,98174.91
2023-01-17T12:25:32.159Z,98176.63
2023-01-17T12:28:31.829Z,98180.97
2023-01-17T12:31:26.219Z,98186.06
2023-01-17T12:34:21.715Z,98200.66
2023-01-17T12:37:31.734Z,98194.56
2023-01-17T12:40:15.195Z,98201.47
2023-01-17T12:42:51.502Z,98205.72
2023-01-17T12:45:46.014Z,98216.91
2023-01-17T12:48:18.675Z,98205.63
2023-01-17T12:50:58.428Z,98206.63
2023-01-17T12:53:49.513Z,98215.19
2023-01-17T12:56:40.855Z,98213.47
2023-01-17T12:59:22.428Z,98211.00
2023-01-17T13:01:57.880Z,98220.41
2023-01-17T13:04:32.580Z,98234.16
2023-01-17T13:06:59.494Z,98253.06
2023-01-17T13:09:35.297Z,98247.06
2023-01-17T13:12:11.319Z,98247.97
2023-01-17T13:14:38.211Z,98260.84
2023-01-17T13:17:39.548Z,98267.81
2023-01-17T13:20:43.806Z,98268.72
2023-01-17T13:23:30.943Z,98274.00
2023-01-17T13:26:00.254Z,98271.50
2023-01-17T13:28:58.812Z,98274.16
2023-01-17T13:31:49.427Z,98272.47
2023-01-17T13:34:45.745Z,98275.06
2023-01-17T13:37:33.412Z,98277.75
2023-01-17T13:40:34.572Z,98295.72
2023-01-17T13:43:12.469Z,98285.50
2023-01-17T13:45:39.701Z,98298.31
2023-01-17T13:48:12.587Z,98304.38
2023-01-17T13:50:53.011Z,98307.78
2023-01-17T13:53:28.837Z,98303.47
2023-01-17T13:56:28.833Z,98309.53
2023-01-17T13:59:02.121Z,98306.13
2023-01-17T14:01:38.339Z,98313.97
2023-01-17T14:04:10.755Z,98326.97
2023-01-17T14:06:52.815Z,98329.66
2023-01-17T14:09:41.593Z,98334.88
2023-01-17T14:12:11.314Z,98335.78
2023-01-17T14:14:40.972Z,98337.56
2023-01-17T14:17:26.550Z,98347.91
2023-01-17T14:19:58.113Z,98359.16
2023-01-17T14:22:32.003Z,98370.41
2023-01-17T14:25:15.034Z,98361.88
2023-01-17T14:27:51.741Z,98371.38
2023-01-17T14:30:33.842Z,98376.59
2023-01-17T14:33:08.757Z,98384.38
2023-01-17T14:35:55.817Z,98384.44
2023-01-17T14:38:26.595Z,98394.00
2023-01-17T14:41:07.443Z,98404.41
2023-01-17T14:43:39.391Z,98410.53
2023-01-17T14:46:15.424Z,98415.72
2023-01-17T14:48:42.347Z,98411.50
2023-01-17T14:51:18.209Z,98416.69
2023-01-17T14:53:59.757Z,98409.94
2023-01-17T14:56:29.287Z,98426.31
2023-01-17T14:59:17.176Z,98428.09
2023-01-17T15:02:06.249Z,98427.38
2023-01-17T15:04:39.073Z,98441.13
2023-01-17T15:07:06.340Z,98446.41
2023-01-17T15:09:36.988Z,98449.84
2023-01-17T15:12:04.416Z,98452.44
2023-01-17T15:14:38.356Z,98455.13
2023-01-17T15:17:20.246Z,98467.19
2023-01-17T15:19:53.715Z,98455.19
2023-01-17T15:22:20.997Z,98466.38
2023-01-17T15:24:49.272Z,98470.72
2023-01-17T15:27:17.138Z,98475.94
2023-01-17T15:29:45.566Z,98492.28
2023-01-17T15:32:22.562Z,98492.38
2023-01-17T15:34:51.134Z,98494.91
2023-01-17T15:37:36.658Z,98499.28
2023-01-17T15:40:22.570Z,98510.53
2023-01-17T15:42:58.256Z,98508.81
2023-01-17T15:45:32.219Z,98503.69
2023-01-17T15:48:40.765Z,98522.69
2023-01-17T15:51:11.816Z,98515.88
2023-01-17T15:53:42.452Z,98520.16
2023-01-17T15:56:34.180Z,98525.31
2023-01-17T15:59:45.485Z,98526.13
2023-01-17T16:02:43.286Z,98525.31
2023-01-17T16:05:27.447Z,98527.91
2023-01-17T16:07:57.701Z,98543.38
2023-01-17T16:10:28.748Z,98550.28
2023-01-17T16:12:58.754Z,98551.13
2023-01-17T16:15:27.369Z,98549.41
2023-01-17T16:18:17.019Z,98552.81
2023-01-17T16:21:00.907Z,98562.25
2023-01-17T16:23:28.641Z,98559.69
2023-01-17T16:25:55.533Z,98551.06
2023-01-17T16:28:22.955Z,98546.81
2023-01-17T16:30:49.929Z,98555.38
2023-01-17T16:33:16.951Z,98561.41
2023-01-17T16:35:43.836Z,98564.00
2023-01-17T16:38:14.124Z,98563.22
2023-01-17T16:40:46.166Z,98547.78
2023-01-17T16:43:19.126Z,98562.38
2023-01-17T16:45:49.013Z,98560.72
2023-01-17T16:48:18.335Z,98555.63
2023-01-17T16:50:50.622Z,98574.53
2023-01-17T16:53:24.272Z,98572.84
2023-01-17T16:55:55.320Z,98573.72
2023-01-17T16:58:22.282Z,98578.88
2023-01-17T17:00:49.219Z,98577.22
2023-01-17T17:03:19.460Z,98595.28
2023-01-17T17:05:56.772Z,98585.84
2023-01-17T17:08:24.258Z,98594.47
2023-01-17T17:10:51.336Z,98603.09
2023-01-17T17:13:18.258Z,98597.09
2023-01-17T17:15:45.252Z,98593.66
2023-01-17T17:18:17.706Z,98597.16
2023-01-17T17:20:45.108Z,98589.44
2023-01-17T17:23:12.323Z,98583.47
2023-01-17T17:25:39.534Z,98598.03
2023-01-17T17:28:06.768Z,98607.50
2023-01-17T17:30:34.516Z,98602.38
2023-01-17T17:33:04.469Z,98611.00
2023-01-17T17:35:34.705Z,98607.56
2023-01-17T17:38:01.598Z,98608.44
2023-01-17T17:40:28.480Z,98613.63
2023-01-17T17:42:55.348Z,98619.69
2023-01-17T17:45:22.416Z,98616.25
2023-01-17T17:47:49.269Z,98612.84
2023-01-17T17:50:16.380Z,98624.00
2023-01-17T17:52:44.070Z,98618.88
2023-01-17T17:55:13.051Z,98623.16
2023-01-17T17:57:39.939Z,98625.75
2023-01-17T18:00:07.907Z,98627.50
2023-01-17T18:02:34.804Z,98607.75
2023-01-17T18:05:02.427Z,98602.66
2023-01-17T18:07:32.597Z,98624.09
2023-01-17T18:09:59.600Z,98626.69
2023-01-17T18:12:26.827Z,98639.56
2023-01-17T18:14:53.709Z,98655.91
2023-01-17T18:17:20.598Z,98656.75
2023-01-17T18:19:47.500Z,98653.34
2023-01-17T18:22:14.387Z,98661.97
2023-01-17T18:24:41.264Z,98661.06
2023-01-17T18:27:10.394Z,98659.38
2023-01-17T18:29:37.358Z,98669.66
2023-01-17T18:32:04.359Z,98672.25
2023-01-17T18:34:31.248Z,98669.69
2023-01-17T18:36:58.479Z,98669.69
2023-01-17T18:39:28.794Z,98676.56
2023-01-17T18:41:55.901Z,98681.72
2023-01-17T18:44:22.959Z,98679.19
2023-01-17T18:46:50.971Z,98685.19
2023-01-17T18:49:21.050Z,98686.03
2023-01-17T18:51:50.919Z,98683.47
2023-01-17T18:54:19.903Z,98695.50
2023-01-17T18:56:46.785Z,98695.50
2023-01-17T18:59:18.079Z,98708.41
2023-01-17T19:01:45.316Z,98709.22
2023-01-17T19:04:14.661Z,98710.13
2023-01-17T19:06:43.987Z,98716.09
2023-01-17T19:09:13.312Z,98708.41
2023-01-17T19:11:40.641Z,98706.69
2023-01-17T19:14:07.643Z,98709.28
2023-01-17T19:16:39.419Z,98707.53
2023-01-17T19:19:10.461Z,98712.72
2023-01-17T19:21:37.568Z,98712.72
2023-01-17T19:24:04.776Z,98701.56
2023-01-17T19:26:31.840Z,98711.88
2023-01-17T19:29:00.008Z,98711.00
2023-01-17T19:31:30.012Z,98710.13
2023-01-17T19:33:58.724Z,98719.56
2023-01-17T19:36:33.463Z,98718.72
2023-01-17T19:39:05.627Z,98723.00
2023-01-17T19:41:35.692Z,98731.59
2023-01-17T19:44:08.990Z,98733.31
2023-01-17T19:46:36.973Z,98727.31
2023-01-17T19:49:06.424Z,98732.44
2023-01-17T19:51:33.580Z,98735.03
2023-01-17T19:54:01.715Z,98736.75
2023-01-17T19:56:30.035Z,98736.72
2023-01-17T19:59:00.893Z,98731.59
2023-01-17T20:01:31.341Z,98749.59
2023-01-17T20:03:58.875Z,98752.19
2023-01-17T20:06:29.929Z,98750.47
2023-01-17T20:08:57.337Z,98753.88
2023-01-17T20:11:26.939Z,98752.13
2023-01-17T20:13:57.069Z,98753.84
2023-01-17T20:16:26.488Z,98764.13
2023-01-17T20:18:53.449Z,98767.56
2023-01-17T20:21:23.762Z,98761.56
2023-01-17T20:23:52.482Z,98766.69
2023-01-17T20:26:23.210Z,98751.22
2023-01-17T20:28:51.884Z,98743.53
2023-01-17T20:31:25.112Z,98772.69
2023-01-17T20:33:55.050Z,98771.84
2023-01-17T20:36:24.889Z,98775.25
2023-01-17T20:38:53.170Z,98770.94
2023-01-17T20:41:26.199Z,98777.78
2023-01-17T20:43:56.865Z,98781.22
2023-01-17T20:46:27.043Z,98782.97
2023-01-17T20:48:57.847Z,98788.94
2023-01-17T20:51:27.524Z,98792.34
2023-01-17T20:53:57.677Z,98799.22
2023-01-17T20:56:25.514Z,98800.94
2023-01-17T20:58:54.433Z,98791.47
2023-01-17T21:01:22.861Z,98808.63
2023-01-17T21:03:53.120Z,98809.50
2023-01-17T21:06:21.928Z,98814.63
2023-01-17T21:08:49.523Z,98822.34
2023-01-17T21:11:22.967Z,98819.75
2023-01-17T21:13:51.218Z,98818.88
2023-01-17T21:16:22.319Z,98816.31
2023-01-17T21:18:51.602Z,98830.88
2023-01-17T21:21:22.308Z,98824.00
2023-01-17T21:23:51.522Z,98833.44
2023-01-17T21:26:20.222Z,98841.13
2023-01-17T21:28:48.721Z,98842.00
2023-01-17T21:31:26.959Z,98851.41
2023-01-17T21:34:00.330Z,98852.28
2023-01-17T21:36:32.672Z,98853.94
2023-01-17T21:39:04.643Z,98849.66
2023-01-17T21:41:38.689Z,98853.09
2023-01-17T21:44:12.228Z,98850.50
2023-01-17T21:46:40.767Z,98835.00
2023-01-17T21:49:12.312Z,98843.59
2023-01-17T21:51:53.250Z,98847.88
2023-01-17T21:54:45.180Z,98849.59
2023-01-17T21:57:33.427Z,98859.84
2023-01-17T22:00:00.412Z,98858.97
2023-01-17T22:02:27.340Z,98855.53
2023-01-17T22:04:56.132Z,98858.94
2023-01-17T22:07:26.885Z,98862.34
2023-01-17T22:09:54.563Z,98866.59
2023-01-17T22:12:21.460Z,98866.59
2023-01-17T22:14:48.355Z,98878.56
2023-01-17T22:17:15.228Z,98880.25
2023-01-17T22:19:42.119Z,98872.47
2023-01-17T22:22:09.006Z,98878.50
2023-01-17T22:24:35.895Z,98882.75
2023-01-17T22:27:02.814Z,98887.91
2023-01-17T22:29:29.725Z,98887.88
2023-01-17T22:31:56.592Z,98891.31
2023-01-17T22:34:23.493Z,98893.00
2023-01-17T22:36:50.375Z,98902.44
2023-01-17T22:39:17.254Z,98904.97
2023-01-17T22:41:44.168Z,98908.41
2023-01-17T22:44:11.250Z,98915.25
2023-01-17T22:46:39.152Z,98917.78
2023-01-17T22:49:08.256Z,98934.91
2023-01-17T22:51:35.546Z,98928.88
2023-01-17T22:54:02.561Z,98924.56
2023-01-17T22:56:32.938Z,98923.69
2023-01-17T22:59:01.457Z,98930.50
2023-01-17T23:01:31.481Z,98935.63
2023-01-17T23:04:01.632Z,98934.78
2023-01-17T23:06:31.834Z,98952.72
2023-01-17T23:09:02.525Z,98947.56
2023-01-17T23:11:43.154Z,98951.84
2023-01-17T23:14:18.468Z,98948.41
2023-01-17T23:17:16.870Z,98959.50
2023-01-17T23:19:47.700Z,98960.31
2023-01-17T23:22:21.247Z,98963.72
2023-01-17T23:24:49.533Z,98961.16
2023-01-17T23:27:40.497Z,98975.66
2023-01-17T23:30:14.010Z,98965.38
2023-01-17T23:32:53.932Z,98964.50
2023-01-17T23:35:27.507Z,98953.38
2023-01-17T23:38:13.726Z,98961.06
2023-01-17T23:40:40.874Z,98967.88
2023-01-17T23:43:25.530Z,98967.00
2023-01-17T23:45:54.671Z,98979.84
2023-01-17T23:48:25.355Z,98967.84
2023-01-17T23:50:57.319Z,98971.28
2023-01-17T23:53:24.194Z,98963.56
2023-01-17T23:55:54.425Z,98975.56
2023-01-17T23:58:27.218Z,98972.09
